createdAt,value
2022-07-30T00:01:44.912Z,3.47
2022-07-30T00:04:12.577Z,3.63
2022-07-30T00:06:40.251Z,4.07
2022-07-30T00:09:08.018Z,3.33
2022-07-30T00:11:36.007Z,3.40
2022-07-30T00:14:03.844Z,3.85
2022-07-30T00:16:31.721Z,2.97
2022-07-30T00:19:00.002Z,3.65
2022-07-30T00:21:35.826Z,3.80
2022-07-30T00:24:04.784Z,3.25
2022-07-30T00:26:32.580Z,3.20
2022-07-30T00:29:00.207Z,3.67
2022-07-30T00:31:29.675Z,3.70
2022-07-30T00:33:57.307Z,3.80
2022-07-30T00:36:25.178Z,3.40
2022-07-30T00:38:52.870Z,3.60
2022-07-30T00:41:22.321Z,3.53
2022-07-30T00:43:50.428Z,3.35
2022-07-30T00:46:18.442Z,4.32
2022-07-30T00:48:46.867Z,4.53
2022-07-30T00:51:14.580Z,3.95
2022-07-30T00:53:42.373Z,4.00
2022-07-30T00:56:10.419Z,3.70
2022-07-30T00:58:38.043Z,3.38
2022-07-30T01:01:05.721Z,3.50
2022-07-30T01:03:33.376Z,3.85
2022-07-30T01:06:01.375Z,3.40
2022-07-30T01:08:29.013Z,3.40
2022-07-30T01:10:56.745Z,3.47
2022-07-30T01:13:24.557Z,4.28
2022-07-30T01:15:52.249Z,3.33
2022-07-30T01:18:20.893Z,3.65
2022-07-30T01:21:09.610Z,3.63
2022-07-30T01:23:43.463Z,4.00
2022-07-30T01:26:18.927Z,3.20
2022-07-30T01:28:50.157Z,5.13
2022-07-30T01:31:19.725Z,3.40
2022-07-30T01:33:49.951Z,3.55
2022-07-30T01:36:22.424Z,3.10
2022-07-30T01:38:51.883Z,3.78
2022-07-30T01:41:20.222Z,3.33
2022-07-30T01:43:48.173Z,3.50
2022-07-30T01:46:17.817Z,3.38
2022-07-30T01:48:49.160Z,2.92
2022-07-30T01:51:18.290Z,3.22
2022-07-30T01:53:51.084Z,3.17
2022-07-30T01:56:24.733Z,3.05
2022-07-30T01:58:54.280Z,3.25
2022-07-30T02:01:25.135Z,3.10
2022-07-30T02:04:02.022Z,3.40
2022-07-30T02:06:38.510Z,2.58
2022-07-30T02:09:10.646Z,3.22
2022-07-30T02:12:05.834Z,3.22
2022-07-30T02:14:45.904Z,3.45
2022-07-30T02:17:22.963Z,2.97
2022-07-30T02:20:00.306Z,2.80
2022-07-30T02:22:34.298Z,3.53
2022-07-30T02:25:05.154Z,3.47
2022-07-30T02:27:35.520Z,2.78
2022-07-30T02:30:07.240Z,3.55
2022-07-30T02:32:38.677Z,3.10
2022-07-30T02:35:18.924Z,3.13
2022-07-30T02:37:50.942Z,3.30
2022-07-30T02:40:21.002Z,3.55
2022-07-30T02:42:51.398Z,3.03
2022-07-30T02:45:25.910Z,3.30
2022-07-30T02:48:01.372Z,3.58
2022-07-30T02:50:30.500Z,3.28
2022-07-30T02:53:01.021Z,3.25
2022-07-30T02:55:32.509Z,2.90
2022-07-30T02:58:02.800Z,3.60
2022-07-30T03:00:32.934Z,3.40
2022-07-30T03:03:01.998Z,3.50
2022-07-30T03:05:30.074Z,3.53
2022-07-30T03:07:59.839Z,3.67
2022-07-30T03:10:29.054Z,3.57
2022-07-30T03:13:00.152Z,4.75
2022-07-30T03:15:29.270Z,3.88
2022-07-30T03:17:58.636Z,3.88
2022-07-30T03:20:29.889Z,4.28
2022-07-30T03:23:00.018Z,4.00
2022-07-30T03:25:32.022Z,3.88
2022-07-30T03:30:30.899Z,4.17
2022-07-30T03:32:59.216Z,3.63
2022-07-30T03:35:27.452Z,4.15
2022-07-30T03:38:00.693Z,4.60
2022-07-30T03:40:30.273Z,4.30
2022-07-30T03:42:58.464Z,3.63
2022-07-30T03:45:27.995Z,4.25
2022-07-30T03:48:04.242Z,4.05
2022-07-30T03:50:36.953Z,4.50
2022-07-30T03:53:06.903Z,4.10
2022-07-30T03:55:42.419Z,4.50
2022-07-30T03:58:36.184Z,4.07
2022-07-30T04:01:06.760Z,4.45
2022-07-30T04:03:34.673Z,3.88
2022-07-30T04:06:05.568Z,3.97
2022-07-30T04:08:33.805Z,4.50
2022-07-30T04:11:01.468Z,4.05
2022-07-30T04:14:04.496Z,4.50
2022-07-30T04:17:05.784Z,4.20
2022-07-30T04:19:38.533Z,4.18
2022-07-30T04:22:09.225Z,4.80
2022-07-30T04:24:40.181Z,5.03
2022-07-30T04:27:07.952Z,5.25
2022-07-30T04:29:36.066Z,5.82
2022-07-30T04:32:04.123Z,7.22
2022-07-30T04:34:34.661Z,6.82
2022-07-30T04:37:04.554Z,7.40
2022-07-30T04:39:32.490Z,8.30
2022-07-30T04:42:00.231Z,8.20
2022-07-30T04:44:30.542Z,8.25
2022-07-30T04:47:18.668Z,9.02
2022-07-30T04:49:59.277Z,9.25
2022-07-30T04:52:27.130Z,9.88
2022-07-30T04:54:59.593Z,9.23
2022-07-30T04:57:28.626Z,11.07
2022-07-30T04:59:57.127Z,14.07
2022-07-30T05:02:29.431Z,19.08
2022-07-30T05:04:59.317Z,18.85
2022-07-30T05:07:28.847Z,20.88
2022-07-30T05:09:56.870Z,20.63
2022-07-30T05:12:34.420Z,20.13
2022-07-30T05:15:02.275Z,20.95
2022-07-30T05:17:29.974Z,20.40
2022-07-30T05:19:57.791Z,21.15
2022-07-30T05:22:30.861Z,20.53
2022-07-30T05:24:58.845Z,20.45
2022-07-30T05:27:26.485Z,20.60
2022-07-30T05:29:55.459Z,20.88
2022-07-30T05:32:25.693Z,20.55
2022-07-30T05:34:58.543Z,19.90
2022-07-30T05:37:26.508Z,21.67
2022-07-30T05:39:57.398Z,22.75
2022-07-30T05:42:40.125Z,20.95
2022-07-30T05:45:09.637Z,20.38
2022-07-30T05:47:37.927Z,20.23
2022-07-30T05:50:06.048Z,21.67
2022-07-30T05:52:34.219Z,20.63
2022-07-30T05:55:13.061Z,20.77
2022-07-30T05:58:07.052Z,20.00
2022-07-30T06:00:35.649Z,21.38
2022-07-30T06:03:03.969Z,19.58
2022-07-30T06:05:57.775Z,19.90
2022-07-30T06:08:25.396Z,16.60
2022-07-30T06:10:53.152Z,14.55
2022-07-30T06:13:20.843Z,13.75
2022-07-30T06:15:48.562Z,13.27
2022-07-30T06:18:16.388Z,13.27
2022-07-30T06:20:49.645Z,11.90
2022-07-30T06:23:26.664Z,11.02
2022-07-30T06:26:23.052Z,10.77
2022-07-30T06:28:51.152Z,10.90
2022-07-30T06:31:25.353Z,11.80
2022-07-30T06:33:53.569Z,10.45
2022-07-30T06:36:21.378Z,9.88
2022-07-30T06:38:59.738Z,9.02
2022-07-30T06:41:56.429Z,7.18
2022-07-30T06:44:29.403Z,6.05
2022-07-30T06:47:26.415Z,4.90
2022-07-30T06:49:54.163Z,5.63
2022-07-30T06:52:22.789Z,5.00
2022-07-30T06:54:52.675Z,5.35
2022-07-30T06:57:27.329Z,5.03
2022-07-30T06:59:56.368Z,5.57
2022-07-30T07:02:32.363Z,5.50
2022-07-30T07:05:10.559Z,5.15
2022-07-30T07:07:44.483Z,5.10
2022-07-30T07:10:21.149Z,4.85
2022-07-30T07:12:55.490Z,5.45
2022-07-30T07:15:36.763Z,5.40
2022-07-30T07:18:08.010Z,5.07
2022-07-30T07:20:38.490Z,4.93
2022-07-30T07:23:12.239Z,5.28
2022-07-30T07:25:41.782Z,4.53
2022-07-30T07:28:13.847Z,4.85
2022-07-30T07:30:45.572Z,4.95
2022-07-30T07:33:15.500Z,4.55
2022-07-30T07:35:49.607Z,4.40
2022-07-30T07:38:30.526Z,4.95
2022-07-30T07:40:59.088Z,3.58
2022-07-30T07:43:29.014Z,3.63
2022-07-30T07:45:59.480Z,3.85
2022-07-30T07:48:31.094Z,3.75
2022-07-30T07:51:09.638Z,4.80
2022-07-30T07:53:37.994Z,4.43
2022-07-30T07:56:08.504Z,4.78
2022-07-30T07:58:38.137Z,4.03
2022-07-30T08:01:09.545Z,3.50
2022-07-30T08:04:04.536Z,3.58
2022-07-30T08:06:59.542Z,3.30
2022-07-30T08:09:46.137Z,3.40
2022-07-30T08:12:23.152Z,3.20
2022-07-30T08:15:14.929Z,3.10
2022-07-30T08:18:02.460Z,3.55
2022-07-30T08:20:39.992Z,3.55
2022-07-30T08:23:08.553Z,4.07
2022-07-30T08:25:36.678Z,3.03
2022-07-30T08:28:04.693Z,2.95
2022-07-30T08:33:04.116Z,2.97
2022-07-30T08:35:31.861Z,2.95
2022-07-30T08:37:59.739Z,2.83
2022-07-30T08:40:31.038Z,3.38
2022-07-30T08:43:05.774Z,2.70
2022-07-30T08:45:35.495Z,3.30
2022-07-30T08:48:24.807Z,2.97
2022-07-30T08:50:53.795Z,2.72
2022-07-30T08:53:40.409Z,2.67
2022-07-30T08:56:09.467Z,2.72
2022-07-30T08:58:37.650Z,3.53
2022-07-30T09:01:06.483Z,2.95
2022-07-30T09:03:34.946Z,2.78
2022-07-30T09:06:04.470Z,2.72
2022-07-30T09:08:32.705Z,3.03
2022-07-30T09:11:00.828Z,2.53
2022-07-30T09:13:35.262Z,2.80
2022-07-30T09:16:06.240Z,3.60
2022-07-30T09:18:39.032Z,3.47
2022-07-30T09:21:20.304Z,2.83
2022-07-30T09:24:03.037Z,3.92
2022-07-30T09:27:02.762Z,2.90
2022-07-30T09:30:02.122Z,3.25
2022-07-30T09:32:48.837Z,2.55
2022-07-30T09:35:38.947Z,3.17
2022-07-30T09:38:11.133Z,2.65
2022-07-30T09:40:58.237Z,2.67
2022-07-30T09:43:47.005Z,2.63
2022-07-30T09:46:22.775Z,2.70
2022-07-30T09:48:51.693Z,2.22
2022-07-30T09:51:24.017Z,2.22
2022-07-30T09:54:10.657Z,3.28
2022-07-30T09:56:40.165Z,2.33
2022-07-30T09:59:34.779Z,2.40
2022-07-30T10:02:10.186Z,2.28
2022-07-30T10:05:14.334Z,2.55
2022-07-30T10:07:51.244Z,2.95
2022-07-30T10:10:25.181Z,2.30
2022-07-30T10:13:04.454Z,1.98
2022-07-30T10:15:37.353Z,2.15
2022-07-30T10:18:07.171Z,2.25
2022-07-30T10:21:13.636Z,2.38
2022-07-30T10:24:04.242Z,2.38
2022-07-30T10:26:57.845Z,2.63
2022-07-30T10:29:42.674Z,2.10
2022-07-30T10:32:16.400Z,2.28
2022-07-30T10:34:47.186Z,2.30
2022-07-30T10:37:27.334Z,2.20
2022-07-30T10:40:17.729Z,2.05
2022-07-30T10:43:08.880Z,3.10
2022-07-30T10:45:55.924Z,4.93
2022-07-30T10:48:25.249Z,2.97
2022-07-30T10:50:57.692Z,2.65
2022-07-30T10:53:37.567Z,2.17
2022-07-30T10:56:25.806Z,1.77
2022-07-30T10:59:12.151Z,2.05
2022-07-30T11:02:02.515Z,2.10
2022-07-30T11:04:31.195Z,2.65
2022-07-30T11:07:28.146Z,1.75
2022-07-30T11:10:05.350Z,2.50
2022-07-30T11:12:44.744Z,1.90
2022-07-30T11:15:19.230Z,2.30
2022-07-30T11:18:11.447Z,3.78
2022-07-30T11:20:48.728Z,2.50
2022-07-30T11:23:19.851Z,1.95
2022-07-30T11:25:50.558Z,2.22
2022-07-30T11:28:49.187Z,2.53
2022-07-30T11:32:07.392Z,2.40
2022-07-30T11:34:29.842Z,2.85
2022-07-30T11:37:21.530Z,2.28
2022-07-30T11:39:57.198Z,2.22
2022-07-30T11:42:30.386Z,2.40
2022-07-30T11:45:27.030Z,2.40
2022-07-30T11:47:57.939Z,2.30
2022-07-30T11:50:29.618Z,2.42
2022-07-30T11:52:59.953Z,2.45
2022-07-30T11:55:31.152Z,2.13
2022-07-30T11:58:00.473Z,2.13
2022-07-30T12:00:50.935Z,1.80
2022-07-30T12:03:34.168Z,2.15
2022-07-30T12:06:24.845Z,2.42
2022-07-30T12:08:58.546Z,2.03
2022-07-30T12:11:37.186Z,1.83
2022-07-30T12:14:06.107Z,2.10
2022-07-30T12:16:42.525Z,1.70
2022-07-30T12:19:22.542Z,1.95
2022-07-30T12:22:08.374Z,1.73
2022-07-30T12:25:08.564Z,2.00
2022-07-30T12:31:55.539Z,2.45
2022-07-30T12:34:27.629Z,2.17
2022-07-30T12:36:57.832Z,2.05
2022-07-30T12:39:36.345Z,2.00
2022-07-30T12:42:35.413Z,1.98
2022-07-30T12:45:04.287Z,1.67
2022-07-30T12:47:36.622Z,2.28
2022-07-30T12:50:20.775Z,2.13
2022-07-30T12:53:13.085Z,2.03
2022-07-30T12:56:20.598Z,1.90
2022-07-30T12:59:22.141Z,1.75
2022-07-30T13:01:56.205Z,1.95
2022-07-30T13:04:24.194Z,2.30
2022-07-30T13:07:10.691Z,1.83
2022-07-30T13:09:43.125Z,1.77
2022-07-30T13:12:15.283Z,1.48
2022-07-30T13:14:43.095Z,1.30
2022-07-30T13:17:11.017Z,2.15
2022-07-30T13:19:38.761Z,1.70
2022-07-30T13:22:06.440Z,1.88
2022-07-30T13:24:38.116Z,1.55
2022-07-30T13:27:09.009Z,1.77
2022-07-30T13:29:36.693Z,2.08
2022-07-30T13:32:04.673Z,1.65
2022-07-30T13:34:35.392Z,2.22
2022-07-30T13:37:03.340Z,1.85
2022-07-30T13:39:31.329Z,1.42
2022-07-30T13:41:59.099Z,1.80
2022-07-30T13:44:26.818Z,1.40
2022-07-30T13:47:01.585Z,1.80
2022-07-30T13:49:29.635Z,1.98
2022-07-30T13:51:57.984Z,2.42
2022-07-30T13:54:25.696Z,2.00
2022-07-30T13:56:53.566Z,1.85
2022-07-30T13:59:21.236Z,2.08
2022-07-30T14:01:49.080Z,1.88
2022-07-30T14:04:18.916Z,1.60
2022-07-30T14:06:46.557Z,2.05
2022-07-30T14:09:14.257Z,1.95
2022-07-30T14:11:41.857Z,1.65
2022-07-30T14:14:10.338Z,1.90
2022-07-30T14:16:45.979Z,1.85
2022-07-30T14:19:23.838Z,1.98
2022-07-30T14:21:53.908Z,1.50
2022-07-30T14:26:55.796Z,1.58
2022-07-30T14:29:26.757Z,1.40
2022-07-30T14:31:55.095Z,1.63
2022-07-30T14:34:22.792Z,1.85
2022-07-30T14:36:50.758Z,1.40
2022-07-30T14:39:18.419Z,1.80
2022-07-30T14:41:46.283Z,2.08
2022-07-30T14:44:14.033Z,1.88
2022-07-30T14:46:51.788Z,1.70
2022-07-30T14:49:21.883Z,1.77
2022-07-30T14:51:50.671Z,1.85
2022-07-30T14:54:18.603Z,1.67
2022-07-30T14:56:57.751Z,2.15
2022-07-30T14:59:27.626Z,2.35
2022-07-30T15:01:57.443Z,1.40
2022-07-30T15:04:25.124Z,1.58
2022-07-30T15:06:52.884Z,1.95
2022-07-30T15:09:20.607Z,2.85
2022-07-30T15:12:09.301Z,2.03
2022-07-30T15:14:38.590Z,2.05
2022-07-30T15:17:07.834Z,1.58
2022-07-30T15:19:35.776Z,1.60
2022-07-30T15:22:04.162Z,1.48
2022-07-30T15:24:32.345Z,1.30
2022-07-30T15:27:00.508Z,1.58
2022-07-30T15:29:30.919Z,1.70
2022-07-30T15:32:00.353Z,1.33
2022-07-30T15:36:56.606Z,1.50
2022-07-30T15:39:24.228Z,1.10
2022-07-30T15:41:57.194Z,1.27
2022-07-30T15:44:25.409Z,1.00
2022-07-30T15:46:53.204Z,1.27
2022-07-30T15:49:21.198Z,1.20
2022-07-30T15:51:50.089Z,1.02
2022-07-30T15:54:22.239Z,1.50
2022-07-30T15:56:53.800Z,1.20
2022-07-30T15:59:22.172Z,1.42
2022-07-30T16:01:49.995Z,0.90
2022-07-30T16:04:19.591Z,0.90
2022-07-30T16:06:53.475Z,1.13
2022-07-30T16:09:21.195Z,1.10
2022-07-30T16:11:49.870Z,1.25
2022-07-30T16:14:17.561Z,1.45
2022-07-30T16:16:45.195Z,1.40
2022-07-30T16:19:12.825Z,2.33
2022-07-30T16:21:40.598Z,1.55
2022-07-30T16:24:08.863Z,1.38
2022-07-30T16:26:37.294Z,2.03
2022-07-30T16:29:05.569Z,8.30
2022-07-30T16:31:33.389Z,2.90
2022-07-30T16:34:01.643Z,2.38
2022-07-30T16:36:29.341Z,1.30
2022-07-30T16:38:57.129Z,1.35
2022-07-30T16:41:24.886Z,1.75
2022-07-30T16:43:53.126Z,1.02
2022-07-30T16:46:20.822Z,1.00
2022-07-30T16:48:50.582Z,1.08
2022-07-30T16:51:18.826Z,1.02
2022-07-30T16:53:48.580Z,1.35
2022-07-30T16:56:17.319Z,1.00
2022-07-30T16:58:45.160Z,1.50
2022-07-30T17:01:12.999Z,1.00
2022-07-30T17:03:43.873Z,1.25
2022-07-30T17:06:11.644Z,1.45
2022-07-30T17:08:39.412Z,1.13
2022-07-30T17:11:09.797Z,1.40
2022-07-30T17:13:40.402Z,1.08
2022-07-30T17:16:08.378Z,1.45
2022-07-30T17:18:36.287Z,1.10
2022-07-30T17:21:04.032Z,1.48
2022-07-30T17:23:32.007Z,1.55
2022-07-30T17:25:59.693Z,1.40
2022-07-30T17:28:27.436Z,1.25
2022-07-30T17:30:55.317Z,1.27
2022-07-30T17:33:23.083Z,1.27
2022-07-30T17:35:50.823Z,1.15
2022-07-30T17:38:18.595Z,1.48
2022-07-30T17:40:47.109Z,1.38
2022-07-30T17:43:15.637Z,1.58
2022-07-30T17:45:44.964Z,1.25
2022-07-30T17:48:12.624Z,1.48
2022-07-30T17:50:40.395Z,1.67
2022-07-30T17:53:08.135Z,1.65
2022-07-30T17:55:35.848Z,1.45
2022-07-30T17:58:04.951Z,1.80
2022-07-30T18:00:34.721Z,1.95
2022-07-30T18:03:03.586Z,1.23
2022-07-30T18:05:31.563Z,1.52
2022-07-30T18:07:59.225Z,2.13
2022-07-30T18:10:27.243Z,1.50
2022-07-30T18:12:54.894Z,1.38
2022-07-30T18:15:23.117Z,1.50
2022-07-30T18:17:50.793Z,1.77
2022-07-30T18:20:18.536Z,1.55
2022-07-30T18:22:46.250Z,1.77
2022-07-30T18:25:19.588Z,1.52
2022-07-30T18:27:48.178Z,1.80
2022-07-30T18:30:16.359Z,2.13
2022-07-30T18:32:45.298Z,2.50
2022-07-30T18:35:14.779Z,1.70
2022-07-30T18:37:46.322Z,2.47
2022-07-30T18:40:18.487Z,1.65
2022-07-30T18:42:48.459Z,1.88
2022-07-30T18:45:16.568Z,1.88
2022-07-30T18:47:45.518Z,1.58
2022-07-30T18:50:14.931Z,1.35
2022-07-30T18:52:44.887Z,1.95
2022-07-30T18:55:13.004Z,2.22
2022-07-30T18:57:41.715Z,2.05
2022-07-30T19:00:34.573Z,2.33
2022-07-30T19:03:01.469Z,2.42
2022-07-30T19:05:29.400Z,2.00
2022-07-30T19:07:58.809Z,2.15
2022-07-30T19:10:27.377Z,2.10
2022-07-30T19:12:56.021Z,1.83
2022-07-30T19:15:24.073Z,2.72
2022-07-30T19:17:52.195Z,2.65
2022-07-30T19:20:20.188Z,2.92
2022-07-30T19:22:47.953Z,4.43
2022-07-30T19:25:18.130Z,3.92
2022-07-30T19:27:45.887Z,3.20
2022-07-30T19:30:14.478Z,2.83
2022-07-30T19:32:42.235Z,2.33
2022-07-30T19:35:13.608Z,2.30
2022-07-30T19:37:42.461Z,2.58
2022-07-30T19:40:10.879Z,2.80
2022-07-30T19:45:28.710Z,2.95
2022-07-30T19:48:28.554Z,2.53
2022-07-30T19:50:59.065Z,2.80
2022-07-30T19:53:27.920Z,2.95
2022-07-30T19:58:50.290Z,2.40
2022-07-30T20:01:18.019Z,2.30
2022-07-30T20:03:47.799Z,2.53
2022-07-30T20:06:18.450Z,2.80
2022-07-30T20:08:46.161Z,2.75
2022-07-30T20:11:35.124Z,2.22
2022-07-30T20:14:03.792Z,2.22
2022-07-30T20:16:31.528Z,2.25
2022-07-30T20:18:59.608Z,2.88
2022-07-30T20:21:56.871Z,2.65
2022-07-30T20:24:19.607Z,2.70
2022-07-30T20:26:48.749Z,2.78
2022-07-30T20:29:19.222Z,2.92
2022-07-30T20:31:49.767Z,2.55
2022-07-30T20:34:23.412Z,2.50
2022-07-30T20:36:53.928Z,3.30
2022-07-30T20:39:25.647Z,2.92
2022-07-30T20:42:07.809Z,3.03
2022-07-30T20:44:49.449Z,3.08
2022-07-30T20:47:34.862Z,3.20
2022-07-30T20:50:09.608Z,2.88
2022-07-30T20:52:40.331Z,3.63
2022-07-30T20:55:19.105Z,3.03
2022-07-30T20:58:00.403Z,3.50
2022-07-30T21:00:36.742Z,3.60
2022-07-30T21:03:05.598Z,3.30
2022-07-30T21:05:35.661Z,3.70
2022-07-30T21:08:03.777Z,3.83
2022-07-30T21:10:35.471Z,3.70
2022-07-30T21:13:07.636Z,3.85
2022-07-30T21:15:36.328Z,3.38
2022-07-30T21:18:13.544Z,3.55
2022-07-30T21:20:41.242Z,3.70
2022-07-30T21:23:20.733Z,3.85
2022-07-30T21:26:02.244Z,3.33
2022-07-30T21:28:43.914Z,3.72
2022-07-30T21:31:12.122Z,3.30
2022-07-30T21:33:42.286Z,3.33
2022-07-30T21:36:11.141Z,4.25
2022-07-30T21:38:42.290Z,3.15
2022-07-30T21:41:14.051Z,2.90
2022-07-30T21:43:46.344Z,2.78
2022-07-30T21:46:24.866Z,2.88
2022-07-30T21:48:58.519Z,2.90
2022-07-30T21:51:27.400Z,3.25
2022-07-30T21:53:55.069Z,4.20
2022-07-30T21:56:25.694Z,2.88
2022-07-30T21:58:53.338Z,2.60
2022-07-30T22:01:24.728Z,2.55
2022-07-30T22:04:02.932Z,2.65
2022-07-30T22:06:40.275Z,3.75
2022-07-30T22:09:26.401Z,3.30
2022-07-30T22:12:01.484Z,3.08
2022-07-30T22:14:30.124Z,2.83
2022-07-30T22:17:04.586Z,2.33
2022-07-30T22:19:33.197Z,2.55
2022-07-30T22:22:05.335Z,2.72
2022-07-30T22:24:54.206Z,2.50
2022-07-30T22:27:22.051Z,2.58
2022-07-30T22:29:49.787Z,2.40
2022-07-30T22:32:17.837Z,3.40
2022-07-30T22:34:45.916Z,3.50
2022-07-30T22:37:15.564Z,2.70
2022-07-30T22:39:51.020Z,2.70
2022-07-30T22:42:24.457Z,2.85
2022-07-30T22:44:55.481Z,3.78
2022-07-30T22:47:51.134Z,2.90
2022-07-30T22:50:14.886Z,3.10
2022-07-30T22:52:52.759Z,3.40
2022-07-30T22:55:27.150Z,3.05
2022-07-30T22:57:55.384Z,2.92
2022-07-30T23:00:28.185Z,2.60
2022-07-30T23:02:57.554Z,3.22
2022-07-30T23:05:26.459Z,2.88
2022-07-30T23:07:54.804Z,3.30
2022-07-30T23:10:23.006Z,2.95
2022-07-30T23:12:15.410Z,2.70
2022-07-30T23:12:53.706Z,3.88
2022-07-30T23:15:22.445Z,3.55
2022-07-30T23:18:01.065Z,2.97
2022-07-30T23:20:28.827Z,3.50
2022-07-30T23:22:56.541Z,3.45
2022-07-30T23:28:06.739Z,3.15
2022-07-30T23:30:34.898Z,3.60
2022-07-30T23:33:02.798Z,3.72
2022-07-30T23:35:31.556Z,3.40
2022-07-30T23:38:00.025Z,3.17
2022-07-30T23:40:28.617Z,3.20
2022-07-30T23:42:56.507Z,4.10
2022-07-30T23:45:24.342Z,3.08
2022-07-30T23:48:01.199Z,3.70
2022-07-30T23:50:34.421Z,3.67
2022-07-30T23:53:03.959Z,4.07
2022-07-30T23:55:32.264Z,3.53
2022-07-30T23:58:00.389Z,3.20
